Time;durP1;ratioP1;P1;durP2;ratioP2;P2;SDS_P1;SDS_P2;PMS_P1;PMS_P2;Temp;Humidity;BMP_temperature;BMP_pressure;BME280_temperature;BME280_humidity;BME280_pressure;Samples;Min_cycle;Max_cycle;Signal;HPM_P1;HPM_P2
2021/01/03 00:00:25;;;;;;;;;22.50;20.50;;;;;4.37;88.37;101778.50;3725395;37;19776;-61
2021/01/03 00:02:54;;;;;;;;;22.00;19.25;;;;;4.49;88.26;101778.44;3725897;37;19769;-60
2021/01/03 00:05:28;;;;;;;;;23.25;18.50;;;;;4.61;88.38;101800.81;3725866;37;19760;-60
2021/01/03 00:07:56;;;;;;;;;20.00;16.25;;;;;4.68;88.39;101801.19;3725802;37;19778;-60
2021/01/03 00:10:25;;;;;;;;;20.75;18.75;;;;;4.69;88.23;101795.69;3725366;38;19751;-61
2021/01/03 00:12:52;;;;;;;;;27.75;21.50;;;;;4.77;88.22;101790.59;3725416;38;19769;-62
2021/01/03 00:15:22;;;;;;;;;22.25;20.25;;;;;4.76;88.17;101796.09;3725429;37;19777;-61
2021/01/03 00:17:51;;;;;;;;;21.00;20.75;;;;;4.58;88.31;101772.41;3725406;38;19733;-62
2021/01/03 00:20:25;;;;;;;;;21.50;19.25;;;;;4.83;88.48;101798.19;3725067;37;19722;-60
2021/01/03 00:22:53;;;;;;;;;21.00;18.25;;;;;4.90;88.20;101803.94;3725420;37;19759;-62
2021/01/03 00:25:22;;;;;;;;;19.25;17.00;;;;;4.91;88.44;101805.66;3725332;38;20727;-62
2021/01/03 00:27:50;;;;;;;;;19.25;16.75;;;;;4.99;88.47;101805.94;3725732;37;20726;-61
2021/01/03 00:30:20;;;;;;;;;18.00;16.50;;;;;5.02;88.42;101804.84;3725407;37;20719;-61
2021/01/03 00:32:48;;;;;;;;;21.75;19.25;;;;;5.05;88.17;101797.41;3725432;38;20853;-61
2021/01/03 00:35:32;;;;;;;;;17.00;15.75;;;;;5.15;88.37;101797.56;3725285;37;20694;-62
2021/01/03 00:38:06;;;;;;;;;14.00;14.00;;;;;5.12;87.93;101787.94;3725363;38;20733;-62
2021/01/03 00:40:33;;;;;;;;;19.25;15.50;;;;;5.14;88.34;101787.81;3725897;38;20699;-61
2021/01/03 00:43:04;;;;;;;;;14.50;13.75;;;;;5.02;88.09;101765.47;3725509;38;20705;-61
2021/01/03 00:45:32;;;;;;;;;17.50;15.25;;;;;5.23;88.18;101782.56;3726646;37;20708;-61
2021/01/03 00:48:00;;;;;;;;;16.75;13.00;;;;;5.25;87.93;101782.44;3725389;37;20981;-60
2021/01/03 00:50:27;;;;;;;;;14.25;13.75;;;;;5.28;87.94;101779.50;3725322;37;20665;-61
2021/01/03 00:52:57;;;;;;;;;15.25;13.25;;;;;5.35;88.16;101778.06;3725748;38;20713;-60
2021/01/03 00:55:25;;;;;;;;;16.50;13.75;;;;;5.36;88.13;101782.47;3725314;37;20680;-62
2021/01/03 00:57:53;;;;;;;;;16.25;14.00;;;;;5.37;87.83;101775.25;3725301;37;20738;-60
2021/01/03 01:00:26;;;;;;;;;15.75;13.50;;;;;5.28;87.77;101769.63;3725159;37;20646;-61
2021/01/03 01:02:54;;;;;;;;;14.50;13.75;;;;;5.39;88.21;101774.16;3725169;37;20695;-60
2021/01/03 01:05:22;;;;;;;;;13.25;11.25;;;;;5.45;87.95;101772.84;3725016;37;20705;-61
2021/01/03 01:07:49;;;;;;;;;14.75;14.00;;;;;5.45;87.82;101772.84;3725871;37;20674;-60
2021/01/03 01:10:27;;;;;;;;;15.50;15.50;;;;;5.44;88.17;101779.19;3725533;37;20686;-60
2021/01/03 01:12:57;;;;;;;;;17.75;11.25;;;;;5.40;88.14;101777.69;3725694;38;20674;-61
2021/01/03 01:15:25;;;;;;;;;11.75;10.75;;;;;5.45;88.08;101772.84;3725399;38;20553;-61
2021/01/03 01:17:55;;;;;;;;;15.75;12.50;;;;;5.49;87.81;101771.63;3725769;37;20668;-62
2021/01/03 01:20:25;;;;;;;;;10.75;10.50;;;;;5.49;87.84;101764.41;3725243;38;20753;-61
2021/01/03 01:22:51;;;;;;;;;13.50;11.75;;;;;5.50;88.01;101757.22;3725382;37;20640;-60
2021/01/03 01:25:23;;;;;;;;;10.50;10.00;;;;;5.49;88.15;101763.56;3725248;37;20642;-61
2021/01/03 01:27:50;;;;;;;;;8.25;8.25;;;;;5.50;88.17;101760.75;3725727;37;20860;-62
2021/01/03 01:30:18;;;;;;;;;7.75;7.75;;;;;5.62;88.13;101769.66;3725613;38;20673;-61
2021/01/03 01:32:51;;;;;;;;;10.00;9.25;;;;;5.68;87.87;101765.66;3725712;37;20720;-60
2021/01/03 01:35:22;;;;;;;;;11.00;10.00;;;;;5.65;87.86;101747.94;3725575;37;20589;-61
2021/01/03 01:37:50;;;;;;;;;10.75;9.50;;;;;5.76;88.00;101758.66;3725492;37;20643;-61
2021/01/03 01:40:18;;;;;;;;;9.50;8.00;;;;;5.85;88.11;101754.38;3725352;38;20623;-61
2021/01/03 01:42:47;;;;;;;;;10.00;9.00;;;;;5.89;88.01;101774.69;3725232;38;20609;-61
2021/01/03 01:45:17;;;;;;;;;11.75;10.00;;;;;5.85;87.89;101765.13;3725265;38;20561;-61
2021/01/03 01:47:51;;;;;;;;;9.50;9.50;;;;;5.88;87.78;101764.88;3725240;37;20636;-62
2021/01/03 01:50:30;;;;;;;;;9.75;8.75;;;;;5.92;87.92;101759.16;3725398;38;20555;-61
2021/01/03 01:52:59;;;;;;;;;9.00;7.00;;;;;5.90;87.51;101755.75;3725683;37;20591;-61
2021/01/03 01:55:37;;;;;;;;;9.25;8.25;;;;;5.90;87.75;101757.56;3725570;38;20546;-61
2021/01/03 01:58:51;;;;;;;;;7.00;7.00;;;;;5.78;87.75;101732.53;3725275;37;20597;-61
2021/01/03 02:01:22;;;;;;;;;9.50;8.00;;;;;6.00;87.60;101746.94;3725440;38;20569;-61
2021/01/03 02:04:06;;;;;;;;;8.50;7.00;;;;;5.93;87.75;101738.53;3725681;37;20561;-61
2021/01/03 02:06:40;;;;;;;;;7.75;7.75;;;;;5.79;87.84;101707.38;3725681;38;20575;-62
2021/01/03 02:09:16;;;;;;;;;8.00;7.25;;;;;6.13;87.47;101763.78;3725734;37;20541;-61
2021/01/03 02:11:44;;;;;;;;;8.00;8.00;;;;;6.17;87.39;101755.34;3725214;38;20565;-61
2021/01/03 02:14:14;;;;;;;;;9.00;8.25;;;;;6.09;87.23;101741.66;3725575;38;20536;-62
2021/01/03 02:16:40;;;;;;;;;7.00;6.25;;;;;6.18;87.58;101743.59;3725466;37;20530;-61
2021/01/03 02:19:20;;;;;;;;;8.00;7.75;;;;;6.05;87.34;101734.84;3725693;37;20556;-61
2021/01/03 02:22:18;;;;;;;;;10.75;8.50;;;;;6.20;87.46;101746.16;3725637;37;20538;-62
2021/01/03 02:24:56;;;;;;;;;8.50;7.75;;;;;6.33;87.42;101760.28;3725656;37;20557;-60
2021/01/03 02:28:12;;;;;;;;;8.25;7.25;;;;;6.15;87.22;101719.66;3725608;38;20508;-61
2021/01/03 02:30:41;;;;;;;;;7.25;7.00;;;;;6.28;86.85;101746.38;3725401;38;20497;-60
2021/01/03 02:33:33;;;;;;;;;9.00;8.25;;;;;6.34;87.08;101747.69;3725742;37;20548;-62
2021/01/03 02:36:18;;;;;;;;;8.75;8.00;;;;;6.31;86.77;101743.41;3725564;38;20527;-60
2021/01/03 02:39:40;;;;;;;;;7.75;5.50;;;;;6.13;87.36;101713.56;3725800;38;20518;-61
2021/01/03 02:42:26;;;;;;;;;10.25;9.00;;;;;6.37;87.17;101736.69;3725319;38;20512;-62
2021/01/03 02:44:53;;;;;;;;;9.00;8.00;;;;;6.32;86.71;101737.91;3725826;37;20536;-60
2021/01/03 02:47:24;;;;;;;;;9.75;8.00;;;;;6.34;86.83;101735.09;3725768;38;20486;-62
2021/01/03 02:49:56;;;;;;;;;9.50;7.50;;;;;6.41;87.01;101738.13;3725865;37;20491;-62
2021/01/03 02:52:35;;;;;;;;;8.00;8.00;;;;;6.35;86.98;101731.44;3725794;37;20472;-60
2021/01/03 02:55:03;;;;;;;;;11.00;10.00;;;;;6.40;86.72;101731.06;3725587;37;20589;-62
2021/01/03 02:57:31;;;;;;;;;10.00;9.50;;;;;6.40;86.65;101733.75;3725376;38;20538;-61
2021/01/03 03:00:06;;;;;;;;;8.50;8.00;;;;;6.39;86.60;101735.56;3725454;37;20511;-61
2021/01/03 03:02:36;;;;;;;;;12.00;10.00;;;;;6.38;86.85;101724.94;3734287;38;20572;-62
2021/01/03 03:05:04;;;;;;;;;9.50;8.50;;;;;6.44;86.88;101725.28;3728533;37;20519;-61
2021/01/03 03:07:32;;;;;;;;;7.50;5.75;;;;;6.39;86.73;101716.75;3730517;37;20490;-63
2021/01/03 03:09:58;;;;;;;;;12.00;9.00;;;;;6.44;86.66;101716.38;3736180;38;20469;-62
2021/01/03 03:12:25;;;;;;;;;14.00;9.00;;;;;6.46;86.69;101709.88;3735006;38;20506;-61
2021/01/03 03:14:52;;;;;;;;;11.75;10.75;;;;;6.39;86.72;101706.00;3730557;37;20465;-66
2021/01/03 03:17:22;;;;;;;;;10.75;9.50;;;;;6.54;86.68;101711.94;3726689;37;20534;-61
2021/01/03 03:19:52;;;;;;;;;9.00;7.25;;;;;6.54;86.61;101720.84;3726618;37;20508;-61
2021/01/03 03:22:19;;;;;;;;;9.00;8.25;;;;;6.56;86.79;101718.03;3726100;37;20484;-60
2021/01/03 03:24:49;;;;;;;;;8.00;8.00;;;;;6.57;86.62;101717.91;3725657;37;20471;-61
2021/01/03 03:27:32;;;;;;;;;12.50;11.25;;;;;6.58;86.77;101716.91;3725897;37;20447;-61
2021/01/03 03:29:58;;;;;;;;;12.75;10.00;;;;;6.65;86.42;101722.63;3725418;37;20517;-61
2021/01/03 03:32:24;;;;;;;;;12.00;9.25;;;;;6.59;86.43;101707.00;3725935;38;20475;-60
2021/01/03 03:34:50;;;;;;;;;11.00;9.00;;;;;6.68;86.53;101717.00;3725840;38;20499;-61
2021/01/03 03:37:21;;;;;;;;;12.75;9.50;;;;;6.67;86.36;101709.91;3725867;37;20480;-60
2021/01/03 03:39:49;;;;;;;;;10.00;9.50;;;;;6.66;86.29;101721.66;3725475;37;20630;-60
2021/01/03 03:42:15;;;;;;;;;8.75;8.25;;;;;6.71;86.38;101718.56;3725889;37;20481;-61
2021/01/03 03:44:44;;;;;;;;;16.75;12.25;;;;;6.76;86.33;101713.66;3725858;38;20428;-61
2021/01/03 03:47:14;;;;;;;;;10.50;9.75;;;;;6.81;86.27;101711.41;3725389;38;20466;-61
2021/01/03 03:49:40;;;;;;;;;11.75;11.25;;;;;6.81;86.47;101717.63;3725268;38;20477;-61
2021/01/03 03:52:07;;;;;;;;;11.75;11.25;;;;;6.83;86.49;101715.66;3725746;38;20470;-61
2021/01/03 03:54:34;;;;;;;;;12.25;10.75;;;;;6.84;86.55;101714.69;3725361;37;20509;-61
2021/01/03 03:57:04;;;;;;;;;12.00;11.50;;;;;6.91;86.44;101715.88;3725401;38;20598;-60
2021/01/03 03:59:31;;;;;;;;;13.25;11.00;;;;;6.92;86.37;101712.19;3725348;38;20465;-60
2021/01/03 04:01:57;;;;;;;;;12.50;11.75;;;;;6.93;86.37;101727.34;3725177;37;20434;-60
2021/01/03 04:04:26;;;;;;;;;12.50;10.75;;;;;6.72;86.13;101705.00;3725613;37;20462;-60
2021/01/03 04:06:54;;;;;;;;;12.25;11.75;;;;;6.91;86.18;101728.47;3725382;38;20444;-61
2021/01/03 04:09:22;;;;;;;;;11.00;10.00;;;;;6.94;86.34;101729.06;3725327;38;20466;-60
2021/01/03 04:11:51;;;;;;;;;10.50;10.00;;;;;6.90;86.31;101722.22;3725245;37;20422;-60
2021/01/03 04:14:21;;;;;;;;;11.00;11.00;;;;;6.91;86.46;101720.41;3725747;37;20428;-61
2021/01/03 04:17:06;;;;;;;;;7.00;6.00;;;;;6.90;86.06;101716.84;3725937;37;20445;-61
2021/01/03 04:19:32;;;;;;;;;13.00;10.00;;;;;6.86;86.53;101711.87;3725624;37;20396;-61
2021/01/03 04:22:02;;;;;;;;;11.00;9.75;;;;;6.88;86.47;101707.19;3725678;38;20410;-61
2021/01/03 04:24:31;;;;;;;;;10.00;9.50;;;;;6.93;86.44;101710.34;3725446;38;20402;-63
2021/01/03 04:27:05;;;;;;;;;12.25;10.00;;;;;6.93;86.28;101715.72;3725498;38;20398;-61
2021/01/03 04:29:32;;;;;;;;;11.50;9.00;;;;;6.92;86.39;101714.87;3725464;38;20397;-61
2021/01/03 04:32:00;;;;;;;;;9.00;9.00;;;;;6.92;86.52;101708.66;3725689;38;20387;-63
2021/01/03 04:34:28;;;;;;;;;9.50;9.25;;;;;7.00;86.50;101706.16;3725851;38;20410;-62
2021/01/03 04:37:01;;;;;;;;;9.75;9.25;;;;;7.00;86.22;101705.28;3725948;37;20393;-62
2021/01/03 04:39:29;;;;;;;;;11.75;10.50;;;;;7.09;86.25;101707.19;3725447;38;20364;-60
2021/01/03 04:42:18;;;;;;;;;11.25;9.75;;;;;7.06;86.41;101696.69;3725293;37;20409;-61
2021/01/03 04:44:52;;;;;;;;;9.75;9.50;;;;;7.12;86.29;101693.47;3725690;38;20374;-59
2021/01/03 04:47:39;;;;;;;;;12.00;11.00;;;;;7.10;86.06;101693.59;3725364;37;20361;-61
2021/01/03 04:50:58;;;;;;;;;15.50;13.00;;;;;7.07;86.03;101688.50;3725709;37;20381;-61
2021/01/03 04:54:10;;;;;;;;;15.25;13.00;;;;;7.13;86.06;101681.72;3725771;37;20408;-60
2021/01/03 04:56:56;;;;;;;;;16.50;14.50;;;;;7.20;85.98;101681.06;3725675;37;20392;-60
2021/01/03 04:59:43;;;;;;;;;18.50;17.50;;;;;7.22;85.69;101694.37;3725761;37;20357;-60
2021/01/03 05:03:06;;;;;;;;;19.75;12.00;;;;;7.17;85.93;101691.25;3725686;38;20427;-60
2021/01/03 05:05:45;;;;;;;;;18.25;15.25;;;;;7.26;85.57;101696.66;3725802;37;20312;-62
2021/01/03 05:08:35;;;;;;;;;15.50;13.25;;;;;7.24;85.63;101685.19;3725784;37;20359;-62
2021/01/03 05:11:11;;;;;;;;;20.75;15.75;;;;;7.17;85.31;101681.31;3725835;37;20327;-60
2021/01/03 05:14:04;;;;;;;;;18.75;16.75;;;;;7.28;85.25;101697.34;3725506;37;20378;-61
2021/01/03 05:16:37;;;;;;;;;18.75;17.25;;;;;7.34;85.30;101697.81;3725551;37;20308;-60
2021/01/03 05:19:07;;;;;;;;;20.50;17.75;;;;;7.30;84.79;101678.38;3725343;37;20367;-61
2021/01/03 05:22:17;;;;;;;;;18.75;16.25;;;;;7.37;85.13;101684.94;3725387;37;20354;-61
2021/01/03 05:24:46;;;;;;;;;18.75;15.25;;;;;7.28;84.82;101673.13;3725662;37;20302;-61
2021/01/03 05:27:20;;;;;;;;;17.00;15.75;;;;;7.28;84.68;101672.28;3725605;38;20347;-60
2021/01/03 05:29:47;;;;;;;;;20.75;18.00;;;;;7.21;84.23;101669.28;3725524;37;20318;-60
2021/01/03 05:32:29;;;;;;;;;19.00;16.00;;;;;7.23;84.64;101666.47;3725768;37;20319;-62
2021/01/03 05:34:56;;;;;;;;;19.50;17.25;;;;;7.15;84.39;101683.28;3725278;37;20326;-61
2021/01/03 05:37:30;;;;;;;;;17.00;15.25;;;;;7.12;84.39;101680.87;3725659;37;20317;-62
2021/01/03 05:39:56;;;;;;;;;18.50;13.75;;;;;7.21;84.32;101692.69;3725745;38;20324;-61
2021/01/03 05:42:37;;;;;;;;;20.00;17.75;;;;;7.18;84.30;101687.56;3725826;37;20318;-60
2021/01/03 05:45:27;;;;;;;;;22.25;18.50;;;;;7.16;84.34;101695.78;3726252;37;20308;-61
2021/01/03 05:48:04;;;;;;;;;24.75;18.25;;;;;7.15;84.13;101701.28;3725883;38;20322;-60
2021/01/03 05:50:43;;;;;;;;;18.75;16.00;;;;;7.14;84.35;101692.34;3726675;37;20314;-62
2021/01/03 05:53:23;;;;;;;;;18.00;16.00;;;;;7.21;84.34;101693.53;3725624;38;20310;-62
2021/01/03 05:55:59;;;;;;;;;18.00;16.75;;;;;7.25;83.83;101683.34;3725346;37;20321;-60
2021/01/03 05:58:49;;;;;;;;;11.00;11.00;;;;;7.12;83.75;101661.16;3725551;38;20302;-61
2021/01/03 06:01:23;;;;;;;;;18.00;16.00;;;;;7.12;83.95;101691.63;3725750;37;20283;-60
2021/01/03 06:04:03;;;;;;;;;19.25;17.00;;;;;7.04;84.15;101669.06;3725702;37;20268;-62
2021/01/03 06:07:00;;;;;;;;;18.75;17.50;;;;;6.99;83.95;101656.00;3725915;37;20308;-61
2021/01/03 06:09:38;;;;;;;;;21.25;19.00;;;;;7.23;83.71;101696.94;3725960;38;20286;-62
2021/01/03 06:12:28;;;;;;;;;17.00;16.75;;;;;7.27;83.58;101689.44;3725903;37;20265;-61
2021/01/03 06:14:58;;;;;;;;;20.75;18.75;;;;;7.26;83.07;101687.75;3725920;38;20266;-61
2021/01/03 06:17:52;;;;;;;;;13.00;11.00;;;;;7.24;83.10;101692.41;3725452;37;20265;-60
2021/01/03 06:20:25;;;;;;;;;18.25;15.25;;;;;7.30;83.25;101711.53;3725440;38;20221;-60
2021/01/03 06:23:01;;;;;;;;;19.00;17.25;;;;;7.35;82.97;101710.28;3725478;37;20259;-62
2021/01/03 06:26:01;;;;;;;;;16.75;15.00;;;;;7.39;83.32;101714.41;3725486;38;20250;-61
2021/01/03 06:28:41;;;;;;;;;24.00;16.00;;;;;7.46;82.68;101713.75;3725797;37;20254;-61
2021/01/03 06:31:44;;;;;;;;;15.50;11.75;;;;;7.36;83.04;101683.22;3725950;37;20290;-62
2021/01/03 06:34:34;;;;;;;;;19.50;17.75;;;;;7.63;82.24;101718.50;3725827;38;20225;-62
2021/01/03 06:37:35;;;;;;;;;15.25;14.50;;;;;7.64;82.23;101719.34;3725745;37;20251;-61
2021/01/03 06:40:31;;;;;;;;;20.00;17.50;;;;;7.69;82.26;101713.56;3729133;38;20209;-60
2021/01/03 06:43:43;;;;;;;;;17.75;15.75;;;;;7.63;81.97;101725.72;3732922;38;20225;-60
2021/01/03 06:47:03;;;;;;;;;13.75;13.75;;;;;7.69;82.07;101722.50;3725713;37;20241;-60
2021/01/03 06:49:56;;;;;;;;;13.00;12.75;;;;;7.71;81.31;101730.44;3732414;37;20233;-61
2021/01/03 06:53:12;;;;;;;;;17.50;13.00;;;;;7.72;81.39;101722.22;3732197;37;20241;-60
2021/01/03 06:56:29;;;;;;;;;19.75;14.00;;;;;7.76;81.34;101720.09;3725313;38;20292;-66
2021/01/03 06:59:40;;;;;;;;;18.50;16.25;;;;;7.95;81.35;101726.38;3725829;38;20211;-61
2021/01/03 07:02:06;;;;;;;;;20.00;17.50;;;;;8.02;80.61;101720.44;3725808;38;20226;-62
2021/01/03 07:04:37;;;;;;;;;18.00;16.75;;;;;8.04;81.00;101727.41;3725678;37;20224;-64
2021/01/03 07:07:15;;;;;;;;;19.50;16.50;;;;;8.10;80.86;101723.31;3725892;37;20221;-61
2021/01/03 07:10:07;;;;;;;;;20.25;15.25;;;;;8.19;80.27;101715.22;3725479;37;20220;-60
2021/01/03 07:12:47;;;;;;;;;14.75;13.25;;;;;8.22;79.83;101723.03;3725558;38;20206;-60
2021/01/03 07:15:43;;;;;;;;;16.75;13.25;;;;;7.70;79.91;101618.25;3725865;37;20201;-62
2021/01/03 07:18:50;;;;;;;;;11.00;10.75;;;;;8.21;79.60;101707.84;3725375;38;20159;-64
2021/01/03 07:21:41;;;;;;;;;15.00;14.50;;;;;8.26;79.29;101716.38;3725653;38;20189;-61
2021/01/03 07:24:53;;;;;;;;;15.50;14.25;;;;;8.24;79.41;101721.06;3725818;38;20178;-63
2021/01/03 07:27:53;;;;;;;;;14.75;12.00;;;;;8.25;79.47;101722.75;3725278;38;20203;-62
2021/01/03 07:30:31;;;;;;;;;21.00;18.50;;;;;8.31;79.19;101715.97;3725751;37;20142;-62
2021/01/03 07:33:15;;;;;;;;;12.25;10.00;;;;;8.32;78.94;101719.50;3725679;38;20183;-62
2021/01/03 07:35:43;;;;;;;;;19.75;17.50;;;;;8.38;78.69;101711.69;3725427;37;20123;-63
2021/01/03 07:38:24;;;;;;;;;13.00;12.75;;;;;8.35;78.68;101709.28;3724851;38;20172;-63
2021/01/03 07:41:24;;;;;;;;;17.25;13.00;;;;;8.38;78.84;101714.41;3724854;38;20227;-62
2021/01/03 07:44:04;;;;;;;;;13.25;12.00;;;;;8.44;78.51;101713.00;3725837;37;20148;-62
2021/01/03 07:46:47;;;;;;;;;14.50;13.00;;;;;8.42;78.46;101712.28;3725479;37;20135;-61
2021/01/03 07:49:47;;;;;;;;;14.00;13.00;;;;;8.52;78.34;101714.00;3725901;38;20153;-62
2021/01/03 07:52:39;;;;;;;;;18.00;15.75;;;;;8.60;78.12;101711.44;3725890;37;20122;-61
2021/01/03 07:55:12;;;;;;;;;14.50;14.50;;;;;8.59;78.06;101715.13;3726069;37;20149;-61
2021/01/03 07:57:38;;;;;;;;;15.50;15.50;;;;;8.60;77.62;101713.28;3725417;37;20124;-63
2021/01/03 08:00:06;;;;;;;;;16.25;15.00;;;;;8.42;77.56;101682.59;3725748;37;20173;-64
2021/01/03 08:02:35;;;;;;;;;16.00;15.75;;;;;8.69;77.75;101709.72;3725993;38;20107;-62
2021/01/03 08:05:03;;;;;;;;;14.00;13.25;;;;;8.66;77.63;101711.84;3725629;37;20153;-64
2021/01/03 08:07:29;;;;;;;;;16.75;15.75;;;;;8.63;77.67;101710.28;3725621;37;20142;-63
2021/01/03 08:10:05;;;;;;;;;15.50;14.50;;;;;8.70;77.30;101707.87;3725902;38;20140;-63
2021/01/03 08:12:37;;;;;;;;;16.00;16.00;;;;;8.77;77.39;101720.66;3725592;38;20110;-62
2021/01/03 08:15:25;;;;;;;;;14.75;13.25;;;;;8.75;77.16;101714.56;3725939;38;20129;-63
2021/01/03 08:17:59;;;;;;;;;19.25;16.50;;;;;8.84;77.54;101731.69;3726255;38;20090;-62
2021/01/03 08:20:28;;;;;;;;;15.75;15.00;;;;;8.89;77.29;101724.87;3725677;37;20116;-63
2021/01/03 08:23:08;;;;;;;;;14.50;13.75;;;;;9.01;77.31;101732.81;3726668;37;20107;-64
2021/01/03 08:25:35;;;;;;;;;13.00;12.00;;;;;8.32;77.18;101607.03;3725640;37;20126;-62
2021/01/03 08:28:28;;;;;;;;;14.50;13.00;;;;;8.96;77.01;101698.16;3725799;37;20148;-63
2021/01/03 08:31:00;;;;;;;;;16.00;14.00;;;;;9.14;76.85;101719.88;3725844;38;20090;-62
2021/01/03 08:33:40;;;;;;;;;17.50;14.25;;;;;9.21;76.88;101724.53;3726174;37;20084;-61
2021/01/03 08:36:29;;;;;;;;;13.75;11.75;;;;;9.22;76.93;101720.00;3725972;38;20083;-63
2021/01/03 08:39:05;;;;;;;;;14.50;13.50;;;;;9.15;76.96;101719.72;3725695;38;20064;-61
2021/01/03 08:41:38;;;;;;;;;10.75;8.50;;;;;9.18;77.41;101727.53;3725956;37;20066;-62
2021/01/03 08:44:07;;;;;;;;;18.25;18.00;;;;;9.17;77.47;101727.69;3725934;37;20058;-61
2021/01/03 08:46:35;;;;;;;;;16.25;15.75;;;;;9.16;77.46;101715.19;3725401;38;20093;-62
2021/01/03 08:49:08;;;;;;;;;14.50;14.25;;;;;9.13;77.79;101702.81;3725327;37;20053;-62
2021/01/03 08:51:35;;;;;;;;;17.25;15.50;;;;;9.32;77.31;101715.41;3724984;37;20090;-61
2021/01/03 08:54:07;;;;;;;;;17.75;16.75;;;;;9.45;77.22;101718.63;3725781;38;20093;-62
2021/01/03 08:56:56;;;;;;;;;15.50;15.25;;;;;9.50;77.18;101713.62;3725867;37;20091;-61
2021/01/03 08:59:35;;;;;;;;;17.50;16.50;;;;;9.59;76.84;101717.28;3725458;38;20054;-62
2021/01/03 09:02:02;;;;;;;;;18.75;17.00;;;;;9.59;76.87;101701.06;3725704;38;20070;-62
2021/01/03 09:04:42;;;;;;;;;12.00;9.75;;;;;9.60;76.41;101705.47;3725948;38;20067;-61
2021/01/03 09:07:09;;;;;;;;;17.00;14.75;;;;;9.61;76.57;101710.72;3725923;37;20060;-62
2021/01/03 09:09:36;;;;;;;;;11.75;11.75;;;;;9.50;76.36;101708.22;3725804;38;20030;-62
2021/01/03 09:12:07;;;;;;;;;15.00;13.50;;;;;9.54;76.70;101704.22;3725806;37;20052;-60
2021/01/03 09:14:45;;;;;;;;;16.25;15.00;;;;;9.53;76.77;101707.91;3725426;37;20186;-62
2021/01/03 09:17:17;;;;;;;;;18.50;17.25;;;;;9.15;76.50;101643.25;3725469;38;20035;-63
2021/01/03 09:20:17;;;;;;;;;15.00;14.00;;;;;9.44;76.65;101698.00;3725878;37;20051;-63
2021/01/03 09:22:48;;;;;;;;;18.75;17.75;;;;;9.53;76.66;101728.69;3725969;37;20028;-64
2021/01/03 09:25:36;;;;;;;;;16.75;15.75;;;;;9.61;76.65;101696.38;3725663;38;20055;-64
2021/01/03 09:28:32;;;;;;;;;19.00;18.00;;;;;9.54;76.80;101695.25;3725302;37;20001;-65
2021/01/03 09:31:13;;;;;;;;;22.00;22.00;;;;;9.49;76.92;101692.16;3725732;37;20059;-62
2021/01/03 09:33:45;;;;;;;;;28.00;23.75;;;;;9.23;76.83;101668.53;3725960;38;20002;-64
2021/01/03 09:36:41;;;;;;;;;20.75;20.00;;;;;9.39;77.21;101651.66;3726059;37;19999;-63
2021/01/03 09:39:59;;;;;;;;;24.50;22.00;;;;;8.76;76.92;101526.47;3725912;37;19991;-63
2021/01/03 09:42:59;;;;;;;;;16.00;16.00;;;;;9.69;76.68;101672.16;3725783;37;19968;-62
2021/01/03 09:46:00;;;;;;;;;20.75;20.50;;;;;9.65;76.94;101664.47;3725824;37;19975;-63
2021/01/03 09:48:37;;;;;;;;;21.00;16.25;;;;;9.74;76.32;101664.44;3726128;37;20052;-63
2021/01/03 09:51:31;;;;;;;;;13.50;13.00;;;;;9.57;76.14;101639.06;3725817;38;19988;-63
2021/01/03 09:54:16;;;;;;;;;17.50;16.25;;;;;9.58;75.85;101639.91;3725816;37;19944;-65
2021/01/03 09:56:45;;;;;;;;;13.50;12.75;;;;;9.81;75.56;101678.19;3725827;38;20007;-63
2021/01/03 09:59:35;;;;;;;;;9.00;9.00;;;;;9.79;75.65;101672.09;3725528;38;20218;-63
2021/01/03 10:02:19;;;;;;;;;9.25;9.00;;;;;9.77;75.27;101664.13;3725101;38;19921;-63
2021/01/03 10:04:47;;;;;;;;;11.75;11.75;;;;;9.58;74.98;101642.59;3725835;38;19914;-62
2021/01/03 10:07:30;;;;;;;;;14.50;10.75;;;;;9.68;75.21;101654.22;3725532;38;19964;-63
2021/01/03 10:10:06;;;;;;;;;12.75;10.50;;;;;9.54;75.12;101650.16;3725486;37;19964;-63
2021/01/03 10:12:36;;;;;;;;;11.25;10.00;;;;;9.61;75.29;101650.41;3725549;37;19972;-63
2021/01/03 10:15:26;;;;;;;;;16.25;15.50;;;;;9.62;75.28;101627.78;3725780;38;19927;-63
2021/01/03 10:18:00;;;;;;;;;10.50;7.75;;;;;9.55;75.13;101616.72;3726182;37;19974;-62
2021/01/03 10:21:01;;;;;;;;;9.50;9.50;;;;;6.92;74.95;101226.97;3735796;37;19945;-64
2021/01/03 10:23:44;;;;;;;;;14.25;11.25;;;;;9.80;75.03;101611.59;3737722;37;19921;-63
2021/01/03 10:26:43;;;;;;;;;9.00;7.00;;;;;9.84;74.48;101626.53;3726605;38;19938;-63
2021/01/03 10:29:15;;;;;;;;;16.00;13.75;;;;;9.91;74.06;101625.72;3739574;38;19926;-63
2021/01/03 10:32:01;;;;;;;;;11.00;10.00;;;;;9.95;74.39;101612.75;3739823;37;19911;-62
2021/01/03 10:34:37;;;;;;;;;13.00;12.00;;;;;9.91;73.97;101611.34;3726115;38;19924;-62
2021/01/03 10:37:05;;;;;;;;;8.25;7.25;;;;;9.94;73.64;101608.34;3725825;38;19922;-63
2021/01/03 10:39:35;;;;;;;;;9.00;7.50;;;;;9.71;73.90;101574.69;3725397;37;19985;-62
2021/01/03 10:42:27;;;;;;;;;8.00;7.75;;;;;9.86;73.66;101609.16;3725537;37;19887;-62
2021/01/03 10:44:55;;;;;;;;;10.75;10.00;;;;;9.76;73.43;101588.59;3725745;37;19884;-63
2021/01/03 10:47:22;;;;;;;;;9.25;8.25;;;;;9.84;73.48;101604.91;3725473;38;19996;-63
2021/01/03 10:49:51;;;;;;;;;10.50;10.00;;;;;9.73;73.78;101586.19;3726004;37;19838;-63
2021/01/03 10:52:18;;;;;;;;;10.25;9.00;;;;;9.60;73.91;101584.69;3726136;37;19963;-63
2021/01/03 10:54:44;;;;;;;;;8.50;7.00;;;;;9.62;74.70;101587.25;3726170;37;19921;-63
2021/01/03 10:57:16;;;;;;;;;11.00;9.75;;;;;9.60;74.51;101584.69;3726488;37;19864;-63
2021/01/03 10:59:43;;;;;;;;;9.00;9.00;;;;;9.69;74.80;101587.50;3726285;37;19880;-64
2021/01/03 11:02:09;;;;;;;;;8.50;7.00;;;;;9.71;74.11;101574.69;3726219;38;19865;-63
2021/01/03 11:04:36;;;;;;;;;10.50;8.00;;;;;9.77;73.81;101587.59;3725683;38;19902;-65
2021/01/03 11:07:03;;;;;;;;;11.00;10.00;;;;;9.80;73.73;101585.44;3725403;37;19836;-63
2021/01/03 11:09:35;;;;;;;;;8.75;8.50;;;;;9.80;73.81;101571.91;3725806;38;19958;-63
2021/01/03 11:12:10;;;;;;;;;3.25;2.00;;;;;9.71;73.38;101561.16;3725316;37;19864;-63
2021/01/03 11:14:37;;;;;;;;;8.25;6.75;;;;;9.79;73.94;101570.22;3725664;37;19833;-62
2021/01/03 11:17:05;;;;;;;;;7.00;5.25;;;;;9.93;73.62;101576.91;3725732;37;19805;-62
2021/01/03 11:19:34;;;;;;;;;9.50;9.00;;;;;9.80;74.09;101582.72;3725922;37;19833;-63
2021/01/03 11:22:04;;;;;;;;;5.75;5.25;;;;;9.78;73.72;101578.47;3725375;38;19808;-64
2021/01/03 11:24:31;;;;;;;;;9.25;8.50;;;;;9.55;74.15;101551.03;3725760;37;19801;-63
2021/01/03 11:27:00;;;;;;;;;9.50;7.75;;;;;9.71;74.06;101567.41;3725471;37;19825;-62
2021/01/03 11:29:28;;;;;;;;;8.00;6.50;;;;;9.67;73.73;101560.62;3725841;37;19836;-62
2021/01/03 11:31:58;;;;;;;;;9.50;9.00;;;;;9.74;74.04;101558.16;3725232;37;19887;-63
2021/01/03 11:34:28;;;;;;;;;11.00;9.75;;;;;9.68;74.08;101572.28;3725926;38;19825;-62
2021/01/03 11:36:58;;;;;;;;;8.25;8.00;;;;;9.68;73.88;101570.44;3725888;38;19849;-64
2021/01/03 11:39:27;;;;;;;;;6.00;6.00;;;;;9.54;74.57;101552.03;3726020;38;19785;-62
2021/01/03 11:41:57;;;;;;;;;8.25;7.75;;;;;9.44;74.29;101554.78;3725749;38;19789;-63
2021/01/03 11:44:24;;;;;;;;;7.75;7.00;;;;;9.45;74.26;101540.28;3725578;37;19780;-63
2021/01/03 11:46:56;;;;;;;;;7.25;7.00;;;;;9.51;74.36;101555.87;3725793;38;19812;-62
2021/01/03 11:49:24;;;;;;;;;15.25;10.75;;;;;9.42;74.30;101535.19;3725756;37;19800;-63
2021/01/03 11:51:51;;;;;;;;;11.50;9.00;;;;;9.52;74.00;101557.59;3725466;37;19821;-63
2021/01/03 11:54:18;;;;;;;;;15.50;15.25;;;;;9.55;74.40;101567.25;3726116;37;19873;-66
2021/01/03 11:56:45;;;;;;;;;8.75;8.75;;;;;9.53;74.50;101563.84;3725912;37;19852;-63
2021/01/03 11:59:13;;;;;;;;;8.25;8.00;;;;;9.50;74.24;101561.44;3725870;38;19773;-64
2021/01/03 12:01:40;;;;;;;;;8.75;8.75;;;;;9.52;74.10;101554.03;3725363;37;19759;-64
2021/01/03 12:04:07;;;;;;;;;10.00;9.50;;;;;9.50;74.69;101553.34;3725426;37;19786;-63
2021/01/03 12:06:33;;;;;;;;;11.75;10.50;;;;;9.51;74.68;101560.44;3725460;37;19791;-64